Time;durP1;ratioP1;P1;durP2;ratioP2;P2;SDS_P1;SDS_P2;PMS_P1;PMS_P2;Temp;Humidity;BMP_temperature;BMP_pressure;BME280_temperature;BME280_humidity;BME280_pressure;Samples;Min_cycle;Max_cycle;Signal;HPM_P1;HPM_P2
2022/03/02 00:00:46;;;;;;;28.03;20.63;;;;;;;;;;5046425;28;20232;-68
2022/03/02 00:03:11;;;;;;;29.80;19.13;;;;;;;;;;5064993;28;20231;-69
2022/03/02 00:05:37;;;;;;;24.10;17.37;;;;;;;;;;5067436;28;20173;-68
2022/03/02 00:08:03;;;;;;;28.73;20.07;;;;;;;;;;5066286;28;20693;-69
2022/03/02 00:10:28;;;;;;;29.23;19.70;;;;;;;;;;5065723;28;20219;-68
2022/03/02 00:12:53;;;;;;;32.17;20.27;;;;;;;;;;5056350;28;20184;-68
2022/03/02 00:15:18;;;;;;;26.00;18.90;;;;;;;;;;5047193;28;20191;-68
2022/03/02 00:17:44;;;;;;;32.10;20.87;;;;;;;;;;5055366;28;20205;-68
2022/03/02 00:20:09;;;;;;;29.00;20.33;;;;;;;;;;5054891;28;20639;-69
2022/03/02 00:22:34;;;;;;;29.70;20.40;;;;;;;;;;5058667;28;20998;-68
2022/03/02 00:24:59;;;;;;;29.20;20.50;;;;;;;;;;5059343;28;20231;-68
2022/03/02 00:27:25;;;;;;;29.30;19.57;;;;;;;;;;5069755;28;20165;-68
2022/03/02 00:29:51;;;;;;;27.80;19.47;;;;;;;;;;5066556;28;20173;-68
2022/03/02 00:32:17;;;;;;;31.50;21.07;;;;;;;;;;5052198;28;20187;-69
2022/03/02 00:34:42;;;;;;;29.33;20.90;;;;;;;;;;5069442;28;20201;-68
2022/03/02 00:37:07;;;;;;;28.53;19.67;;;;;;;;;;5069279;28;20642;-68
2022/03/02 00:39:33;;;;;;;29.13;19.70;;;;;;;;;;5069804;28;20169;-68
2022/03/02 00:41:58;;;;;;;27.67;19.10;;;;;;;;;;5064807;28;20334;-68
2022/03/02 00:44:23;;;;;;;28.83;20.00;;;;;;;;;;5063995;28;20208;-68
2022/03/02 00:46:49;;;;;;;26.90;19.33;;;;;;;;;;5051206;28;20175;-69
2022/03/02 00:49:14;;;;;;;29.17;21.07;;;;;;;;;;5068441;28;20635;-69
2022/03/02 00:51:40;;;;;;;29.27;19.50;;;;;;;;;;5070029;28;20195;-68
2022/03/02 00:54:05;;;;;;;31.40;21.27;;;;;;;;;;5069413;28;20199;-68
2022/03/02 00:56:30;;;;;;;27.20;19.30;;;;;;;;;;5069803;28;20172;-68
2022/03/02 00:58:55;;;;;;;31.77;20.33;;;;;;;;;;5069034;28;20176;-69
2022/03/02 01:01:21;;;;;;;31.93;20.83;;;;;;;;;;5073395;28;20208;-68
2022/03/02 01:03:46;;;;;;;28.13;18.80;;;;;;;;;;5067118;28;20231;-68
2022/03/02 01:06:11;;;;;;;26.17;19.47;;;;;;;;;;5069201;28;20177;-68
2022/03/02 01:08:36;;;;;;;27.10;19.00;;;;;;;;;;5067719;28;20185;-69
2022/03/02 01:11:02;;;;;;;28.53;19.03;;;;;;;;;;5072494;28;20638;-68
2022/03/02 01:13:27;;;;;;;26.03;19.57;;;;;;;;;;5068569;28;20200;-68
2022/03/02 01:15:52;;;;;;;27.07;17.80;;;;;;;;;;5068902;28;20177;-69
2022/03/02 01:18:17;;;;;;;31.17;20.20;;;;;;;;;;5066124;28;20243;-69
2022/03/02 01:20:43;;;;;;;29.47;20.43;;;;;;;;;;5067945;28;20196;-69
2022/03/02 01:23:09;;;;;;;27.07;18.77;;;;;;;;;;5051686;28;20250;-69
2022/03/02 01:25:34;;;;;;;27.07;19.23;;;;;;;;;;5070250;28;20201;-70
2022/03/02 01:28:00;;;;;;;28.17;19.83;;;;;;;;;;5070783;28;20173;-69
2022/03/02 01:30:25;;;;;;;29.07;19.17;;;;;;;;;;5050940;28;20185;-70
2022/03/02 01:32:50;;;;;;;28.73;19.83;;;;;;;;;;5068226;28;20180;-69
2022/03/02 01:35:15;;;;;;;30.37;18.40;;;;;;;;;;5068367;28;20188;-67
2022/03/02 01:37:41;;;;;;;31.07;20.23;;;;;;;;;;5068950;28;20649;-67
2022/03/02 01:40:09;;;;;;;31.60;20.00;;;;;;;;;;5059971;28;20295;-67
2022/03/02 01:42:35;;;;;;;28.40;19.07;;;;;;;;;;5067003;28;20252;-67
2022/03/02 01:45:01;;;;;;;27.60;18.67;;;;;;;;;;5067039;28;20274;-67
2022/03/02 01:47:27;;;;;;;30.07;19.27;;;;;;;;;;5069704;28;20189;-67
2022/03/02 01:49:52;;;;;;;29.20;19.47;;;;;;;;;;5065726;28;20169;-67
2022/03/02 01:52:17;;;;;;;29.87;21.33;;;;;;;;;;5071316;28;20263;-70
2022/03/02 01:54:42;;;;;;;31.53;20.10;;;;;;;;;;5071718;28;20188;-69
2022/03/02 01:57:09;;;;;;;28.57;18.63;;;;;;;;;;5072021;28;20184;-69
2022/03/02 01:59:34;;;;;;;28.40;19.67;;;;;;;;;;5073609;28;20256;-69
2022/03/02 02:01:59;;;;;;;30.07;20.63;;;;;;;;;;5077408;28;20296;-69
2022/03/02 02:04:25;;;;;;;29.70;19.53;;;;;;;;;;5070057;28;20238;-69
2022/03/02 02:06:50;;;;;;;28.43;19.83;;;;;;;;;;5071053;28;20208;-69
2022/03/02 02:09:15;;;;;;;34.50;21.30;;;;;;;;;;5067644;28;20185;-69
2022/03/02 02:11:40;;;;;;;29.50;20.00;;;;;;;;;;5071892;28;20516;-69
2022/03/02 02:14:05;;;;;;;32.03;21.23;;;;;;;;;;5072507;28;20579;-69
2022/03/02 02:16:31;;;;;;;31.83;20.73;;;;;;;;;;5072262;28;20215;-69
2022/03/02 02:18:56;;;;;;;32.67;21.30;;;;;;;;;;5073782;28;20212;-69
2022/03/02 02:21:21;;;;;;;34.70;21.17;;;;;;;;;;5071097;28;20296;-69
2022/03/02 02:23:47;;;;;;;27.80;19.73;;;;;;;;;;5072386;28;20240;-69
2022/03/02 02:26:12;;;;;;;29.60;20.97;;;;;;;;;;5055124;28;20264;-69
2022/03/02 02:28:37;;;;;;;34.57;20.33;;;;;;;;;;5072305;28;20196;-69
2022/03/02 02:31:03;;;;;;;33.60;20.97;;;;;;;;;;5072599;28;20267;-69
2022/03/02 02:33:28;;;;;;;34.57;20.13;;;;;;;;;;5071457;28;20631;-68
2022/03/02 02:35:54;;;;;;;27.20;19.20;;;;;;;;;;5071689;28;20185;-68
2022/03/02 02:38:23;;;;;;;28.07;19.87;;;;;;;;;;5072633;28;20306;-68
2022/03/02 02:40:49;;;;;;;27.17;19.53;;;;;;;;;;5063546;28;20205;-69
2022/03/02 02:43:15;;;;;;;30.73;20.27;;;;;;;;;;5067369;28;20575;-68
2022/03/02 02:45:40;;;;;;;27.33;19.00;;;;;;;;;;5071424;28;20168;-69
2022/03/02 02:48:05;;;;;;;29.93;21.30;;;;;;;;;;5070477;28;20172;-68
2022/03/02 02:50:31;;;;;;;35.57;20.93;;;;;;;;;;5070972;28;20165;-68
2022/03/02 02:52:57;;;;;;;26.23;18.40;;;;;;;;;;5070106;28;20258;-68
2022/03/02 02:55:25;;;;;;;30.03;20.17;;;;;;;;;;5071154;28;20221;-68
2022/03/02 02:57:50;;;;;;;29.70;20.10;;;;;;;;;;5071136;28;20189;-69
2022/03/02 03:00:17;;;;;;;32.77;20.90;;;;;;;;;;5048007;28;20246;-68
2022/03/02 03:02:44;;;;;;;29.73;19.83;;;;;;;;;;5068919;28;20174;-68
2022/03/02 03:05:14;;;;;;;28.77;20.50;;;;;;;;;;5071404;28;20188;-68
2022/03/02 03:07:39;;;;;;;30.67;19.07;;;;;;;;;;5072018;28;20169;-67
2022/03/02 03:10:05;;;;;;;29.37;21.07;;;;;;;;;;5071732;28;20687;-68
2022/03/02 03:12:30;;;;;;;30.37;20.20;;;;;;;;;;5072103;28;20609;-68
2022/03/02 03:14:56;;;;;;;29.43;20.97;;;;;;;;;;5071389;28;20212;-68
2022/03/02 03:17:21;;;;;;;29.77;19.83;;;;;;;;;;5070036;28;20228;-68
2022/03/02 03:19:46;;;;;;;30.13;20.10;;;;;;;;;;5072371;28;20207;-68
2022/03/02 03:22:11;;;;;;;29.87;20.00;;;;;;;;;;5070684;28;20210;-69
2022/03/02 03:24:36;;;;;;;29.63;19.70;;;;;;;;;;5071251;28;20647;-69
2022/03/02 03:27:02;;;;;;;30.20;21.50;;;;;;;;;;5070027;28;20173;-69
2022/03/02 03:29:27;;;;;;;29.43;19.90;;;;;;;;;;5071847;28;20749;-68
2022/03/02 03:31:52;;;;;;;29.27;20.00;;;;;;;;;;5070727;28;20169;-68
2022/03/02 03:34:18;;;;;;;31.50;20.63;;;;;;;;;;5070252;28;20223;-69
2022/03/02 03:36:43;;;;;;;27.83;19.47;;;;;;;;;;5071273;28;20532;-68
2022/03/02 03:39:08;;;;;;;30.00;19.57;;;;;;;;;;5072772;28;20213;-69
2022/03/02 03:41:34;;;;;;;28.73;20.07;;;;;;;;;;5063516;28;20240;-68
2022/03/02 03:43:59;;;;;;;31.00;21.90;;;;;;;;;;5069585;28;20863;-69
2022/03/02 03:46:24;;;;;;;27.77;20.80;;;;;;;;;;5069502;28;20181;-68
2022/03/02 03:48:50;;;;;;;25.53;19.27;;;;;;;;;;5068581;28;20978;-68
2022/03/02 03:51:15;;;;;;;27.37;19.33;;;;;;;;;;5053350;28;20180;-68
2022/03/02 03:53:40;;;;;;;28.93;20.30;;;;;;;;;;5068921;28;20246;-68
2022/03/02 03:56:05;;;;;;;28.13;19.70;;;;;;;;;;5068587;28;20180;-68
2022/03/02 03:58:31;;;;;;;28.87;20.37;;;;;;;;;;5070902;28;20203;-68
2022/03/02 04:00:56;;;;;;;30.73;18.67;;;;;;;;;;5073995;28;20231;-68
2022/03/02 04:03:21;;;;;;;33.03;21.20;;;;;;;;;;5070101;28;20208;-67
2022/03/02 04:05:46;;;;;;;30.47;19.80;;;;;;;;;;5070463;28;20195;-68
2022/03/02 04:08:11;;;;;;;32.33;20.43;;;;;;;;;;5070459;28;20185;-68
2022/03/02 04:10:37;;;;;;;27.00;19.00;;;;;;;;;;5062849;28;20260;-67
2022/03/02 04:13:02;;;;;;;29.40;20.20;;;;;;;;;;5070673;28;20204;-67
2022/03/02 04:15:28;;;;;;;31.20;20.43;;;;;;;;;;5070432;28;20168;-68
2022/03/02 04:17:53;;;;;;;29.63;20.00;;;;;;;;;;5070525;28;20227;-68
2022/03/02 04:20:18;;;;;;;29.50;19.00;;;;;;;;;;5069791;28;20205;-67
2022/03/02 04:22:43;;;;;;;32.40;22.23;;;;;;;;;;5070482;28;20181;-68
2022/03/02 04:25:10;;;;;;;28.57;20.00;;;;;;;;;;5069526;28;20279;-68
2022/03/02 04:27:35;;;;;;;30.53;19.53;;;;;;;;;;5070235;28;20177;-67
2022/03/02 04:30:01;;;;;;;31.10;21.27;;;;;;;;;;5070428;28;20169;-68
2022/03/02 04:32:27;;;;;;;31.27;19.00;;;;;;;;;;5070509;28;20196;-68
2022/03/02 04:34:52;;;;;;;28.20;20.87;;;;;;;;;;5069869;28;20209;-68
2022/03/02 04:37:17;;;;;;;26.40;20.30;;;;;;;;;;5069188;28;20180;-68
2022/03/02 04:39:43;;;;;;;31.63;20.33;;;;;;;;;;5071790;28;20172;-68
2022/03/02 04:42:08;;;;;;;31.90;21.27;;;;;;;;;;5063538;28;20279;-67
2022/03/02 04:44:33;;;;;;;31.77;21.43;;;;;;;;;;5067029;28;20271;-68
2022/03/02 04:46:58;;;;;;;27.87;19.90;;;;;;;;;;5070200;28;20271;-67
2022/03/02 04:49:23;;;;;;;30.93;20.87;;;;;;;;;;5068500;28;20179;-68
2022/03/02 04:51:49;;;;;;;31.77;19.20;;;;;;;;;;5069688;28;20192;-68
2022/03/02 04:56:59;;;;;;;27.57;19.13;;;;;;;;;;5070455;28;20680;-68
2022/03/02 04:59:24;;;;;;;29.33;20.93;;;;;;;;;;5069494;28;20176;-67
2022/03/02 05:01:49;;;;;;;28.57;20.37;;;;;;;;;;5074517;28;20207;-67
2022/03/02 05:04:14;;;;;;;31.03;21.10;;;;;;;;;;5069658;28;20197;-67
2022/03/02 05:06:39;;;;;;;30.47;19.80;;;;;;;;;;5063681;28;20170;-67
2022/03/02 05:09:04;;;;;;;32.63;21.10;;;;;;;;;;5063599;28;20235;-67
2022/03/02 05:11:30;;;;;;;31.67;20.97;;;;;;;;;;5069923;28;20189;-67
2022/03/02 05:13:55;;;;;;;30.00;20.60;;;;;;;;;;5070261;28;20735;-68
2022/03/02 05:16:21;;;;;;;30.03;20.87;;;;;;;;;;5068922;28;20177;-67
2022/03/02 05:18:46;;;;;;;38.63;20.73;;;;;;;;;;5055228;28;20192;-67
2022/03/02 05:21:11;;;;;;;29.67;20.47;;;;;;;;;;5069506;28;20197;-68
2022/03/02 05:23:37;;;;;;;30.13;21.63;;;;;;;;;;5068921;28;20201;-67
2022/03/02 05:26:02;;;;;;;31.70;19.73;;;;;;;;;;5070740;28;20267;-67
2022/03/02 05:28:27;;;;;;;31.20;20.63;;;;;;;;;;5077687;28;20172;-68
2022/03/02 05:30:52;;;;;;;30.10;20.77;;;;;;;;;;5076646;28;20180;-68
2022/03/02 05:33:17;;;;;;;31.73;19.87;;;;;;;;;;5074761;28;20235;-67
2022/03/02 05:35:43;;;;;;;29.67;19.63;;;;;;;;;;5075998;28;20181;-67
2022/03/02 05:38:08;;;;;;;30.60;20.90;;;;;;;;;;5076459;28;20188;-67
2022/03/02 05:40:33;;;;;;;27.30;19.90;;;;;;;;;;5074592;28;20265;-68
2022/03/02 05:42:59;;;;;;;32.37;20.03;;;;;;;;;;5072409;28;20216;-67
2022/03/02 05:45:24;;;;;;;32.20;20.10;;;;;;;;;;5070711;28;20173;-67
2022/03/02 05:47:49;;;;;;;29.13;20.10;;;;;;;;;;5074376;28;20184;-68
2022/03/02 05:50:14;;;;;;;28.43;20.63;;;;;;;;;;5074567;28;20177;-67
2022/03/02 05:52:39;;;;;;;31.03;19.93;;;;;;;;;;5074940;28;20192;-67
2022/03/02 05:55:05;;;;;;;28.50;19.97;;;;;;;;;;5075355;28;20175;-67
2022/03/02 05:57:30;;;;;;;28.60;20.33;;;;;;;;;;5076929;28;20678;-69
2022/03/02 05:59:55;;;;;;;28.70;19.70;;;;;;;;;;5076494;28;20259;-67
2022/03/02 06:02:21;;;;;;;28.97;19.03;;;;;;;;;;5068259;28;20203;-68
2022/03/02 06:04:47;;;;;;;29.37;19.13;;;;;;;;;;5073721;28;20571;-68
2022/03/02 06:07:12;;;;;;;28.53;18.87;;;;;;;;;;5075659;28;20197;-68
2022/03/02 06:09:37;;;;;;;32.03;20.47;;;;;;;;;;5076145;28;20177;-68
2022/03/02 06:12:03;;;;;;;28.83;19.70;;;;;;;;;;5076500;28;20199;-67
2022/03/02 06:14:28;;;;;;;29.97;20.57;;;;;;;;;;5073793;28;20196;-67
2022/03/02 06:16:53;;;;;;;29.03;19.67;;;;;;;;;;5073849;28;20177;-67
2022/03/02 06:19:18;;;;;;;30.20;19.90;;;;;;;;;;5072436;28;20177;-67
2022/03/02 06:21:46;;;;;;;26.60;18.33;;;;;;;;;;5075761;28;20201;-67
2022/03/02 06:24:14;;;;;;;27.47;18.30;;;;;;;;;;5075680;28;20253;-67
2022/03/02 06:26:39;;;;;;;33.50;20.63;;;;;;;;;;5075546;28;20180;-67
2022/03/02 06:29:04;;;;;;;29.03;19.37;;;;;;;;;;5070882;28;20177;-67
2022/03/02 06:31:31;;;;;;;27.50;19.07;;;;;;;;;;5075802;28;20169;-67
2022/03/02 06:33:56;;;;;;;26.73;20.27;;;;;;;;;;5073982;28;20593;-67
2022/03/02 06:36:22;;;;;;;30.43;19.70;;;;;;;;;;5075226;28;20188;-67
2022/03/02 06:38:47;;;;;;;28.50;18.87;;;;;;;;;;5066308;28;20224;-68
2022/03/02 06:41:19;;;;;;;29.17;20.57;;;;;;;;;;5066883;28;20192;-68
2022/03/02 06:43:56;;;;;;;29.37;19.53;;;;;;;;;;5053012;28;20220;-66
2022/03/02 06:46:40;;;;;;;31.27;20.43;;;;;;;;;;5070760;28;20169;-67
2022/03/02 06:49:15;;;;;;;29.93;19.83;;;;;;;;;;5068367;28;20188;-67
2022/03/02 06:51:43;;;;;;;29.70;20.27;;;;;;;;;;5070774;28;20440;-68
2022/03/02 06:54:10;;;;;;;26.77;19.20;;;;;;;;;;5070931;28;20342;-67
2022/03/02 06:56:39;;;;;;;28.77;18.23;;;;;;;;;;5071010;28;20265;-67
2022/03/02 06:59:06;;;;;;;27.83;19.03;;;;;;;;;;5052892;28;20184;-68
2022/03/02 07:01:31;;;;;;;26.97;17.83;;;;;;;;;;5075863;28;20758;-67
2022/03/02 07:03:58;;;;;;;27.50;18.10;;;;;;;;;;5071085;28;20196;-67
2022/03/02 07:06:24;;;;;;;27.97;17.90;;;;;;;;;;5068499;28;20650;-68
2022/03/02 07:08:50;;;;;;;24.97;18.30;;;;;;;;;;5073063;28;20238;-67
2022/03/02 07:11:16;;;;;;;25.17;18.10;;;;;;;;;;5073242;28;20260;-68
2022/03/02 07:13:42;;;;;;;28.67;17.63;;;;;;;;;;5071314;28;20299;-67
2022/03/02 07:16:08;;;;;;;27.70;17.50;;;;;;;;;;5072439;28;20180;-67
2022/03/02 07:18:34;;;;;;;24.40;17.53;;;;;;;;;;5071672;28;20177;-67
2022/03/02 07:21:00;;;;;;;26.90;17.63;;;;;;;;;;5068073;28;20296;-67
2022/03/02 07:23:28;;;;;;;25.33;17.43;;;;;;;;;;5074145;28;20283;-67
2022/03/02 07:25:55;;;;;;;25.97;18.47;;;;;;;;;;5072618;28;20173;-67
2022/03/02 07:28:20;;;;;;;28.83;17.77;;;;;;;;;;5072741;28;20165;-67
2022/03/02 07:30:46;;;;;;;27.87;18.70;;;;;;;;;;5072840;28;20165;-67
2022/03/02 07:33:13;;;;;;;27.63;18.20;;;;;;;;;;5071409;28;20677;-67
2022/03/02 07:35:38;;;;;;;26.77;19.23;;;;;;;;;;5072459;28;20173;-67
2022/03/02 07:38:04;;;;;;;29.60;19.07;;;;;;;;;;5054306;28;20196;-67
2022/03/02 07:40:30;;;;;;;28.43;18.47;;;;;;;;;;5061266;28;20196;-67
2022/03/02 07:42:55;;;;;;;29.93;18.77;;;;;;;;;;5070304;28;20554;-67
2022/03/02 07:45:20;;;;;;;28.10;18.67;;;;;;;;;;5072190;28;20302;-68
2022/03/02 07:47:47;;;;;;;25.10;17.93;;;;;;;;;;5070981;28;20177;-67
2022/03/02 07:50:13;;;;;;;31.77;18.43;;;;;;;;;;5072352;28;20254;-69
2022/03/02 07:52:38;;;;;;;28.23;19.57;;;;;;;;;;5072309;28;20651;-68
2022/03/02 07:55:09;;;;;;;25.23;16.87;;;;;;;;;;5071838;28;20187;-68
2022/03/02 07:57:35;;;;;;;33.63;18.03;;;;;;;;;;5064625;28;20264;-68
2022/03/02 08:00:00;;;;;;;24.97;17.03;;;;;;;;;;5066873;28;20323;-68
2022/03/02 08:02:29;;;;;;;25.13;16.87;;;;;;;;;;5071698;28;20176;-68
2022/03/02 08:04:54;;;;;;;36.67;19.77;;;;;;;;;;5069895;28;20204;-69
2022/03/02 08:07:20;;;;;;;22.10;16.10;;;;;;;;;;5068910;28;20172;-69
2022/03/02 08:09:46;;;;;;;25.47;15.87;;;;;;;;;;5069222;28;20172;-69
2022/03/02 08:12:11;;;;;;;22.77;15.87;;;;;;;;;;5069008;28;20177;-67
2022/03/02 08:14:37;;;;;;;27.83;17.77;;;;;;;;;;5058412;28;20201;-68
2022/03/02 08:17:03;;;;;;;23.87;15.13;;;;;;;;;;5066029;28;20192;-69
2022/03/02 08:19:28;;;;;;;24.23;16.33;;;;;;;;;;5064973;28;20185;-68
2022/03/02 08:21:58;;;;;;;26.57;15.77;;;;;;;;;;5061853;28;20303;-68
2022/03/02 08:24:26;;;;;;;20.67;16.27;;;;;;;;;;5064883;28;20196;-69
2022/03/02 08:26:54;;;;;;;26.07;16.50;;;;;;;;;;5053557;28;20237;-69
2022/03/02 08:29:20;;;;;;;23.10;15.83;;;;;;;;;;5069994;28;20185;-68
2022/03/02 08:31:46;;;;;;;20.33;14.30;;;;;;;;;;5070706;28;20531;-68
2022/03/02 08:34:11;;;;;;;19.87;14.40;;;;;;;;;;5067291;28;20219;-69
2022/03/02 08:36:37;;;;;;;21.53;14.60;;;;;;;;;;5071235;28;20613;-69
2022/03/02 08:39:13;;;;;;;19.50;13.80;;;;;;;;;;5066554;28;20231;-68
2022/03/02 08:41:39;;;;;;;20.23;13.73;;;;;;;;;;5068068;28;20212;-69
2022/03/02 08:44:05;;;;;;;19.20;13.33;;;;;;;;;;5068643;28;20222;-69
2022/03/02 08:46:31;;;;;;;22.20;14.37;;;;;;;;;;5052820;28;20547;-69
2022/03/02 08:48:56;;;;;;;20.80;14.90;;;;;;;;;;5047449;28;20181;-69
2022/03/02 08:51:22;;;;;;;17.90;12.70;;;;;;;;;;5069068;28;20176;-69
2022/03/02 08:53:51;;;;;;;19.00;13.30;;;;;;;;;;5067950;28;20201;-68
2022/03/02 08:56:16;;;;;;;21.27;13.73;;;;;;;;;;5069539;28;20168;-69
2022/03/02 08:58:42;;;;;;;19.83;13.63;;;;;;;;;;5069957;28;20263;-69
2022/03/02 09:01:10;;;;;;;21.67;14.33;;;;;;;;;;5074540;28;20192;-69
2022/03/02 09:03:35;;;;;;;21.13;14.57;;;;;;;;;;5067779;28;20201;-68
2022/03/02 09:06:02;;;;;;;15.70;13.33;;;;;;;;;;5067367;28;20552;-69
2022/03/02 09:08:27;;;;;;;20.20;14.70;;;;;;;;;;5067316;28;20185;-68
2022/03/02 09:10:53;;;;;;;21.37;14.10;;;;;;;;;;5071127;28;20187;-68
2022/03/02 09:13:18;;;;;;;19.23;13.43;;;;;;;;;;5066171;28;20196;-69
2022/03/02 09:15:44;;;;;;;20.40;13.57;;;;;;;;;;5072458;28;20209;-69
2022/03/02 09:18:10;;;;;;;19.87;14.10;;;;;;;;;;5069411;28;20526;-68
2022/03/02 09:20:36;;;;;;;18.17;13.03;;;;;;;;;;5050546;28;20197;-68
2022/03/02 09:23:07;;;;;;;17.70;13.60;;;;;;;;;;5070570;28;20208;-69
2022/03/02 09:25:32;;;;;;;18.27;13.20;;;;;;;;;;5063665;28;20666;-69
2022/03/02 09:27:58;;;;;;;22.03;14.70;;;;;;;;;;5068918;28;20165;-69
2022/03/02 09:30:24;;;;;;;17.90;14.10;;;;;;;;;;5069498;28;20173;-68
2022/03/02 09:32:54;;;;;;;23.67;13.30;;;;;;;;;;5068693;28;20172;-69
2022/03/02 09:35:20;;;;;;;19.20;13.60;;;;;;;;;;5052165;28;20183;-68
2022/03/02 09:37:53;;;;;;;23.23;14.73;;;;;;;;;;5069127;28;20172;-69
2022/03/02 09:40:21;;;;;;;19.27;14.33;;;;;;;;;;5068766;28;20180;-68
2022/03/02 09:42:53;;;;;;;17.23;12.23;;;;;;;;;;5047695;28;20173;-68
2022/03/02 09:45:20;;;;;;;19.47;13.37;;;;;;;;;;5069526;28;20596;-69
2022/03/02 09:47:49;;;;;;;18.47;12.50;;;;;;;;;;5069604;28;20172;-69
2022/03/02 09:50:17;;;;;;;18.40;13.23;;;;;;;;;;5068717;28;20310;-69
2022/03/02 09:52:45;;;;;;;18.47;12.57;;;;;;;;;;5064688;28;20173;-70
2022/03/02 09:55:12;;;;;;;20.30;12.40;;;;;;;;;;5065819;28;20184;-69
2022/03/02 09:57:42;;;;;;;19.67;14.00;;;;;;;;;;5069467;28;20169;-69
2022/03/02 10:00:10;;;;;;;20.50;14.00;;;;;;;;;;5068319;28;20172;-68
2022/03/02 10:02:36;;;;;;;21.73;14.97;;;;;;;;;;5073982;28;20169;-69
2022/03/02 10:05:06;;;;;;;22.07;14.00;;;;;;;;;;5066753;28;20197;-69
2022/03/02 10:07:34;;;;;;;22.27;15.57;;;;;;;;;;5066910;28;20261;-68
2022/03/02 10:10:22;;;;;;;19.40;13.47;;;;;;;;;;5067192;28;20184;-68
2022/03/02 10:12:48;;;;;;;23.80;14.53;;;;;;;;;;5067132;28;20683;-68
2022/03/02 10:15:14;;;;;;;18.70;13.73;;;;;;;;;;5072377;28;20298;-69
2022/03/02 10:17:41;;;;;;;17.03;12.97;;;;;;;;;;5070771;28;20708;-69
2022/03/02 10:20:08;;;;;;;22.88;13.60;;;;;;;;;;5071853;28;20252;-70
2022/03/02 10:22:42;;;;;;;19.20;13.90;;;;;;;;;;5069905;28;20180;-70
2022/03/02 10:25:12;;;;;;;19.08;12.93;;;;;;;;;;5073175;28;20712;-69
2022/03/02 10:27:40;;;;;;;19.20;14.18;;;;;;;;;;5072474;28;20177;-69
2022/03/02 10:30:07;;;;;;;22.13;14.13;;;;;;;;;;5073499;28;20165;-68
2022/03/02 10:32:35;;;;;;;16.83;12.77;;;;;;;;;;5072926;28;20177;-69
2022/03/02 10:35:03;;;;;;;16.02;13.20;;;;;;;;;;5071832;28;20205;-69
2022/03/02 10:37:29;;;;;;;16.77;13.45;;;;;;;;;;5073848;28;20563;-69
2022/03/02 10:39:56;;;;;;;16.38;11.70;;;;;;;;;;5068465;28;20176;-69
2022/03/02 10:42:21;;;;;;;16.65;13.18;;;;;;;;;;5067362;28;20255;-69
2022/03/02 10:45:02;;;;;;;16.42;12.65;;;;;;;;;;5074635;28;20220;-69
2022/03/02 10:47:28;;;;;;;18.38;13.20;;;;;;;;;;5072135;28;20805;-69
2022/03/02 10:49:54;;;;;;;17.58;13.35;;;;;;;;;;5072335;28;20205;-69
2022/03/02 10:52:20;;;;;;;16.38;13.48;;;;;;;;;;5073623;28;20200;-69
2022/03/02 10:54:47;;;;;;;17.45;12.15;;;;;;;;;;5071970;28;20642;-69
2022/03/02 10:57:14;;;;;;;17.05;12.88;;;;;;;;;;5072295;28;20177;-69
2022/03/02 10:59:42;;;;;;;20.13;12.93;;;;;;;;;;5071484;28;20173;-68
2022/03/02 11:02:09;;;;;;;17.00;13.35;;;;;;;;;;5074573;28;20235;-69
2022/03/02 11:04:36;;;;;;;15.77;11.98;;;;;;;;;;5069266;28;20242;-68
2022/03/02 11:07:02;;;;;;;16.58;12.20;;;;;;;;;;5068171;28;20177;-68
2022/03/02 11:09:32;;;;;;;21.48;12.88;;;;;;;;;;5071182;28;20264;-69
2022/03/02 11:11:58;;;;;;;17.58;12.52;;;;;;;;;;5071537;28;20638;-69
2022/03/02 11:14:24;;;;;;;18.13;13.20;;;;;;;;;;5065239;28;20211;-68
2022/03/02 11:16:50;;;;;;;17.85;12.48;;;;;;;;;;5074178;28;20188;-68
2022/03/02 11:19:16;;;;;;;16.70;11.38;;;;;;;;;;5069724;28;20184;-68
2022/03/02 11:21:43;;;;;;;18.15;13.40;;;;;;;;;;5071944;28;20197;-68
2022/03/02 11:24:13;;;;;;;15.27;11.98;;;;;;;;;;5067721;28;20203;-69
2022/03/02 11:26:40;;;;;;;15.40;12.65;;;;;;;;;;5066039;28;20177;-68
2022/03/02 11:29:06;;;;;;;16.83;12.77;;;;;;;;;;5069236;28;20197;-69
2022/03/02 11:31:38;;;;;;;19.30;11.48;;;;;;;;;;5050668;28;20270;-69
2022/03/02 11:34:16;;;;;;;14.73;11.52;;;;;;;;;;5069224;28;20596;-69
2022/03/02 11:36:44;;;;;;;15.85;11.98;;;;;;;;;;5067785;28;20183;-69
2022/03/02 11:39:10;;;;;;;18.88;13.50;;;;;;;;;;5064671;28;20310;-69
2022/03/02 11:41:36;;;;;;;16.63;12.77;;;;;;;;;;5051155;28;20307;-69
2022/03/02 11:44:03;;;;;;;17.33;12.95;;;;;;;;;;5071948;28;20278;-69
2022/03/02 11:46:28;;;;;;;17.60;12.30;;;;;;;;;;5069210;28;20169;-69
2022/03/02 11:48:53;;;;;;;16.33;13.07;;;;;;;;;;5071999;28;20779;-69
2022/03/02 11:51:27;;;;;;;15.52;12.07;;;;;;;;;;5071393;28;20176;-68
2022/03/02 11:53:54;;;;;;;16.05;12.00;;;;;;;;;;5068622;28;20416;-69
2022/03/02 11:56:20;;;;;;;16.30;11.98;;;;;;;;;;5069819;28;20192;-68
2022/03/02 11:58:55;;;;;;;16.33;11.45;;;;;;;;;;5070310;28;20175;-69
2022/03/02 12:01:21;;;;;;;16.35;12.73;;;;;;;;;;5067452;28;20751;-68
2022/03/02 12:03:56;;;;;;;15.98;11.90;;;;;;;;;;5070093;28;20197;-69
2022/03/02 12:06:21;;;;;;;14.70;12.23;;;;;;;;;;5067328;28;20218;-69
2022/03/02 12:08:51;;;;;;;11.98;9.60;;;;;;;;;;5070473;28;20272;-68
2022/03/02 12:11:21;;;;;;;17.08;12.00;;;;;;;;;;5069945;28;20181;-69
2022/03/02 12:14:04;;;;;;;15.48;11.88;;;;;;;;;;5068795;28;20743;-68
2022/03/02 12:16:35;;;;;;;20.55;12.27;;;;;;;;;;5065328;28;20598;-68
2022/03/02 12:19:00;;;;;;;16.00;10.48;;;;;;;;;;5068300;28;20212;-68
2022/03/02 12:21:25;;;;;;;14.52;10.93;;;;;;;;;;5068974;28;20243;-69
2022/03/02 12:23:53;;;;;;;13.30;10.00;;;;;;;;;;5067146;28;20235;-69
2022/03/02 12:26:19;;;;;;;13.90;10.30;;;;;;;;;;5070429;28;20253;-69
2022/03/02 12:28:53;;;;;;;14.38;10.63;;;;;;;;;;5069412;28;20189;-69
2022/03/02 12:31:27;;;;;;;12.38;10.15;;;;;;;;;;5067802;28;20558;-68
2022/03/02 12:33:58;;;;;;;12.80;10.32;;;;;;;;;;5064881;28;20211;-69
2022/03/02 12:36:24;;;;;;;15.82;10.82;;;;;;;;;;5061821;28;20188;-69
2022/03/02 12:38:49;;;;;;;12.73;10.23;;;;;;;;;;5068523;28;20177;-69
2022/03/02 12:41:15;;;;;;;15.48;10.45;;;;;;;;;;5070276;28;20212;-69
2022/03/02 12:43:40;;;;;;;10.52;9.15;;;;;;;;;;5067301;28;20285;-68
2022/03/02 12:46:05;;;;;;;12.38;9.38;;;;;;;;;;5069683;28;20180;-69
2022/03/02 12:48:31;;;;;;;14.40;9.88;;;;;;;;;;5069751;28;20173;-68
2022/03/02 12:50:56;;;;;;;13.57;9.63;;;;;;;;;;5065409;28;20239;-68
2022/03/02 12:53:21;;;;;;;11.27;9.90;;;;;;;;;;5069863;28;20200;-69
2022/03/02 12:55:47;;;;;;;12.07;9.30;;;;;;;;;;5067771;28;20830;-69
2022/03/02 12:58:12;;;;;;;11.88;10.00;;;;;;;;;;5063392;28;20177;-69
2022/03/02 13:00:38;;;;;;;14.88;10.88;;;;;;;;;;5068588;28;20216;-69
2022/03/02 13:03:06;;;;;;;13.20;9.80;;;;;;;;;;5068451;28;20196;-69
2022/03/02 13:05:45;;;;;;;14.63;10.93;;;;;;;;;;5066901;28;20215;-68
2022/03/02 13:08:28;;;;;;;13.48;10.15;;;;;;;;;;5065702;28;20172;-67
2022/03/02 13:10:53;;;;;;;12.13;10.50;;;;;;;;;;5061296;28;20208;-69
2022/03/02 13:13:30;;;;;;;13.32;10.18;;;;;;;;;;5065488;28;20263;-67
2022/03/02 13:15:55;;;;;;;12.70;10.10;;;;;;;;;;5070535;28;20226;-67
2022/03/02 13:18:21;;;;;;;14.35;11.13;;;;;;;;;;5067945;28;20578;-69
2022/03/02 13:20:55;;;;;;;16.10;11.93;;;;;;;;;;5053059;28;20199;-69
2022/03/02 13:23:23;;;;;;;14.35;11.25;;;;;;;;;;5066574;28;20196;-69
2022/03/02 13:26:00;;;;;;;14.50;11.32;;;;;;;;;;5068306;28;20196;-69
2022/03/02 13:28:26;;;;;;;13.88;10.10;;;;;;;;;;5070559;28;20169;-69
2022/03/02 13:31:08;;;;;;;16.88;11.27;;;;;;;;;;5066627;28;20184;-69
2022/03/02 13:34:04;;;;;;;14.38;10.77;;;;;;;;;;5061076;28;20208;-69
2022/03/02 13:36:42;;;;;;;12.40;9.93;;;;;;;;;;5065017;28;20180;-69
2022/03/02 13:39:11;;;;;;;12.50;10.20;;;;;;;;;;5062576;28;20189;-68
2022/03/02 13:41:42;;;;;;;17.55;11.50;;;;;;;;;;5058558;28;20197;-69
2022/03/02 13:44:26;;;;;;;17.70;11.85;;;;;;;;;;5067043;28;20205;-69
2022/03/02 13:47:15;;;;;;;15.23;11.93;;;;;;;;;;5064745;28;20184;-69
2022/03/02 13:49:47;;;;;;;14.10;11.45;;;;;;;;;;5071958;28;20176;-69
2022/03/02 13:52:13;;;;;;;14.13;11.13;;;;;;;;;;5074805;28;20180;-68
2022/03/02 13:54:38;;;;;;;17.55;11.45;;;;;;;;;;5071928;28;20204;-69
2022/03/02 13:57:04;;;;;;;14.38;11.05;;;;;;;;;;5074415;28;20230;-69
2022/03/02 13:59:29;;;;;;;15.43;11.25;;;;;;;;;;5067814;28;20247;-69
2022/03/02 14:01:54;;;;;;;15.45;11.25;;;;;;;;;;5074216;28;20211;-68
2022/03/02 14:04:20;;;;;;;14.13;10.52;;;;;;;;;;5068893;28;20491;-69
2022/03/02 14:06:50;;;;;;;14.40;12.00;;;;;;;;;;5073229;28;20180;-68
2022/03/02 14:09:15;;;;;;;16.92;12.43;;;;;;;;;;5069319;28;20615;-68
2022/03/02 14:11:44;;;;;;;16.33;11.35;;;;;;;;;;5073401;28;20176;-68
2022/03/02 14:14:12;;;;;;;14.10;10.68;;;;;;;;;;5072698;28;20193;-68
2022/03/02 14:16:37;;;;;;;16.17;11.50;;;;;;;;;;5069939;28;20671;-68